Seastreak Highlands — WDE4031 — position and weather

sailwx.info

Track history (hours):
 
Tides and Currents Weather Stations Pressure Air Temp Water Temp Dewpoint Dewpoint Depression Visibility Wind Speed Wind Dir Waves Ship Positions

Seastreak Highlands

Owner: Seastreak llc, atlantic highlands, NJ. More information available from US FCC via Universal Licensing System and Coast Guard Vessel Documentation Center.

Last reported at 2018-May-19 00:00 UTC. Time now 2018-May-20 13:23 UTC.
Position N 40°36' W 074°03'.

Length 44 m.

Type: High speed craft. MMSI: 367347670.

Date/timePositionNaut miles runAvg speedWind from/ knotsBaromVisibWave heightAir tempDewpointWater temp
2018-May-19 00:00N 40°36' W 074°03'918.3
2018-May-18 23:29N 40°45' W 073°58'613.3
2018-May-18 23:01N 40°39' W 074°02'3 2.3
2018-May-18 21:45N 40°36' W 074°02'624.1
2018-May-18 21:30N 40°42' W 074°00'3 5.9
2018-May-18 21:00N 40°45' W 073°58'612.2
2018-May-18 20:30N 40°39' W 074°02'3 2.5
2018-May-18 19:16N 40°36' W 074°03'624.1
2018-May-18 19:00N 40°42' W 074°00'2 4.4
2018-May-18 18:28N 40°44' W 073°58'  
2018-May-16 14:23N 40°35' W 074°03'925.4
2018-May-16 14:00N 40°43' W 073°58'2 4.2
2018-May-16 13:31N 40°42' W 074°00'7 6.0
2018-May-16 12:24N 40°36' W 074°03'1023.6
2018-May-16 12:00N 40°45' W 073°58'511.0
2018-May-16 11:30N 40°40' W 074°01'4 0.3
2018-May-16 00:00N 40°36' W 074°03'917.9
2018-May-15 23:29N 40°45' W 073°58'9 5.5
2018-May-15 21:47N 40°36' W 074°03'622.6
2018-May-15 21:30N 40°42' W 074°00'3 5.8
2018-May-15 21:00N 40°45' W 073°58'715.1
2018-May-15 20:30N 40°38' W 074°03'3 2.4
2018-May-15 19:18N 40°35' W 074°02'723.9
2018-May-15 19:00N 40°42' W 074°00'3 5.1
2018-May-15 18:26N 40°45' W 073°58'0 0.0
2018-May-15 17:58N 40°45' W 073°58'0 0.0
2018-May-15 17:20N 40°45' W 073°58'0 0.0
2018-May-15 16:43N 40°45' W 073°58'0 0.0
2018-May-15 16:23N 40°45' W 073°58'0 0.0
2018-May-15 14:07N 40°45' W 073°58'0 0.1
2018-May-15 13:58N 40°45' W 073°58'511.5
2018-May-15 13:30N 40°40' W 074°01'7 6.8
2018-May-15 12:31N 40°33' W 074°02'230.5
2018-May-15 12:28N 40°35' W 074°03'1021.6
2018-May-15 12:00N 40°44' W 073°58'1019.8
2018-May-15 11:31N 40°35' W 074°02'1 0.1
2018-May-15 00:03N 40°35' W 074°03'132.9
2018-May-15 00:01N 40°36' W 074°03'918.4
2018-May-14 23:30N 40°45' W 073°58'714.9
2018-May-14 23:00N 40°38' W 074°03'2 1.8
2018-May-14 21:47N 40°36' W 074°03'724.4
2018-May-14 21:30N 40°42' W 074°00'3 5.8
2018-May-14 21:00N 40°45' W 073°58'612.6
2018-May-14 20:31N 40°39' W 074°02'3 2.5
2018-May-14 19:17N 40°36' W 074°03'622.0
2018-May-14 19:00N 40°42' W 074°00'3 3.1
2018-May-14 18:03N 40°45' W 073°58'0 0.0
2018-May-14 17:43N 40°45' W 073°58'0 0.0
2018-May-14 17:20N 40°45' W 073°58'0 0.0
2018-May-14 17:00N 40°45' W 073°58'0 0.0
2018-May-14 16:24N 40°45' W 073°58'0 0.0
2018-May-14 15:51N 40°45' W 073°58'0 0.0
2018-May-14 15:30N 40°45' W 073°58'0 0.0
2018-May-14 14:56N 40°45' W 073°58'0 0.0
2018-May-14 14:00N 40°45' W 073°58'4 8.8
2018-May-14 13:30N 40°41' W 074°01'6 5.9
2018-May-14 12:30N 40°35' W 074°03'1020.7
2018-May-14 12:00N 40°45' W 073°58'612.0
2018-May-14 11:31N 40°39' W 074°02'  
2018-May-12 02:21N 40°33' W 074°02'926.0
2018-May-12 02:00N 40°42' W 074°00'3 5.7
2018-May-12 01:29N 40°45' W 073°58'919.1
2018-May-12 01:00N 40°36' W 074°03'0 0.1
2018-May-11 22:38N 40°36' W 074°03'429.8
2018-May-11 22:30N 40°40' W 074°01'610.9
2018-May-11 22:00N 40°45' W 073°58'9 6.0
2018-May-11 20:32N 40°37' W 074°03'232.1
2018-May-11 20:28N 40°39' W 074°02'3 5.0
2018-May-11 19:46N 40°42' W 074°00'3 1.3
2018-May-11 17:48N 40°40' W 074°03'3 3.1
2018-May-11 16:59N 40°42' W 074°01'3 2.3
2018-May-11 15:34N 40°39' W 074°02'233.4
2018-May-11 15:31N 40°40' W 074°01'2 2.4
2018-May-11 14:44N 40°42' W 074°00'7 4.2
2018-May-11 13:08N 40°36' W 074°03'433.3
2018-May-11 13:00N 40°40' W 074°03'3 3.9
2018-May-11 12:14N 40°42' W 074°00'313.7
2018-May-11 12:01N 40°40' W 074°03'1 0.1
2018-May-11 02:11N 40°39' W 074°02'3 3.2
2018-May-11 01:14N 40°42' W 074°00'6 2.2
2018-May-10 22:31N 40°36' W 074°03'330.6
2018-May-10 22:25N 40°39' W 074°02'610.0
2018-May-10 21:49N 40°44' W 073°58'5 3.5
2018-May-10 20:23N 40°40' W 074°01'2 6.3
2018-May-10 20:01N 40°42' W 074°00'0 0.8
2018-May-10 19:29N 40°42' W 074°00'15 2.5
2018-May-10 13:28N 40°27' W 074°02'1532.0
2018-May-10 13:01N 40°42' W 074°01'4 6.9
2018-May-10 12:28N 40°45' W 073°58'612.5
2018-May-10 12:01N 40°39' W 074°01'1427.2
2018-May-10 11:29N 40°25' W 074°02'14 1.1
2018-May-09 22:27N 40°39' W 074°02'612.3
2018-May-09 21:56N 40°45' W 073°58'9 6.5
2018-May-09 20:31N 40°36' W 074°03'031.0
2018-May-09 20:30N 40°36' W 074°03'612.3
2018-May-09 20:01N 40°42' W 074°00'2 3.9
2018-May-09 19:30N 40°43' W 073°58'17 2.8
2018-May-09 13:25N 40°27' W 074°02'1330.9
2018-May-09 13:00N 40°39' W 074°03'510.4
2018-May-09 12:30N 40°43' W 073°58'815.5
2018-May-09 12:00N 40°36' W 074°02'1120.8
2018-May-09 11:30N 40°25' W 074°02'  
Track history (hours):
 
Tides and Currents Weather Stations Pressure Air Temp Water Temp Dewpoint Dewpoint Depression Visibility Wind Speed Wind Dir Waves Ship Positions

Seastreak Highlands

Owner: Seastreak llc, atlantic highlands, NJ. More information available from US FCC via Universal Licensing System and Coast Guard Vessel Documentation Center.

Last reported at 2018-May-19 00:00 UTC. Time now 2018-May-20 13:23 UTC.
Position N 40°36' W 074°03'.

Length 44 m.

Type: High speed craft. MMSI: 367347670.

Date/timePositionNaut miles runAvg speedWind from/ knotsBaromVisibWave heightAir tempDewpointWater temp
2018-May-19 00:00N 40°36' W 074°03'918.3
2018-May-18 23:29N 40°45' W 073°58'613.3
2018-May-18 23:01N 40°39' W 074°02'3 2.3
2018-May-18 21:45N 40°36' W 074°02'624.1
2018-May-18 21:30N 40°42' W 074°00'3 5.9
2018-May-18 21:00N 40°45' W 073°58'612.2
2018-May-18 20:30N 40°39' W 074°02'3 2.5
2018-May-18 19:16N 40°36' W 074°03'624.1
2018-May-18 19:00N 40°42' W 074°00'2 4.4
2018-May-18 18:28N 40°44' W 073°58'  
2018-May-16 14:23N 40°35' W 074°03'925.4
2018-May-16 14:00N 40°43' W 073°58'2 4.2
2018-May-16 13:31N 40°42' W 074°00'7 6.0
2018-May-16 12:24N 40°36' W 074°03'1023.6
2018-May-16 12:00N 40°45' W 073°58'511.0
2018-May-16 11:30N 40°40' W 074°01'4 0.3
2018-May-16 00:00N 40°36' W 074°03'917.9
2018-May-15 23:29N 40°45' W 073°58'9 5.5
2018-May-15 21:47N 40°36' W 074°03'622.6
2018-May-15 21:30N 40°42' W 074°00'3 5.8
2018-May-15 21:00N 40°45' W 073°58'715.1
2018-May-15 20:30N 40°38' W 074°03'3 2.4
2018-May-15 19:18N 40°35' W 074°02'723.9
2018-May-15 19:00N 40°42' W 074°00'3 5.1
2018-May-15 18:26N 40°45' W 073°58'0 0.0
2018-May-15 17:58N 40°45' W 073°58'0 0.0
2018-May-15 17:20N 40°45' W 073°58'0 0.0
2018-May-15 16:43N 40°45' W 073°58'0 0.0
2018-May-15 16:23N 40°45' W 073°58'0 0.0
2018-May-15 14:07N 40°45' W 073°58'0 0.1
2018-May-15 13:58N 40°45' W 073°58'511.5
2018-May-15 13:30N 40°40' W 074°01'7 6.8
2018-May-15 12:31N 40°33' W 074°02'230.5
2018-May-15 12:28N 40°35' W 074°03'1021.6
2018-May-15 12:00N 40°44' W 073°58'1019.8
2018-May-15 11:31N 40°35' W 074°02'1 0.1
2018-May-15 00:03N 40°35' W 074°03'132.9
2018-May-15 00:01N 40°36' W 074°03'918.4
2018-May-14 23:30N 40°45' W 073°58'714.9
2018-May-14 23:00N 40°38' W 074°03'2 1.8
2018-May-14 21:47N 40°36' W 074°03'724.4
2018-May-14 21:30N 40°42' W 074°00'3 5.8
2018-May-14 21:00N 40°45' W 073°58'612.6
2018-May-14 20:31N 40°39' W 074°02'3 2.5
2018-May-14 19:17N 40°36' W 074°03'622.0
2018-May-14 19:00N 40°42' W 074°00'3 3.1
2018-May-14 18:03N 40°45' W 073°58'0 0.0
2018-May-14 17:43N 40°45' W 073°58'0 0.0
2018-May-14 17:20N 40°45' W 073°58'0 0.0
2018-May-14 17:00N 40°45' W 073°58'0 0.0
2018-May-14 16:24N 40°45' W 073°58'0 0.0
2018-May-14 15:51N 40°45' W 073°58'0 0.0
2018-May-14 15:30N 40°45' W 073°58'0 0.0
2018-May-14 14:56N 40°45' W 073°58'0 0.0
2018-May-14 14:00N 40°45' W 073°58'4 8.8
2018-May-14 13:30N 40°41' W 074°01'6 5.9
2018-May-14 12:30N 40°35' W 074°03'1020.7
2018-May-14 12:00N 40°45' W 073°58'612.0
2018-May-14 11:31N 40°39' W 074°02'  
2018-May-12 02:21N 40°33' W 074°02'926.0
2018-May-12 02:00N 40°42' W 074°00'3 5.7
2018-May-12 01:29N 40°45' W 073°58'919.1
2018-May-12 01:00N 40°36' W 074°03'0 0.1
2018-May-11 22:38N 40°36' W 074°03'429.8
2018-May-11 22:30N 40°40' W 074°01'610.9
2018-May-11 22:00N 40°45' W 073°58'9 6.0
2018-May-11 20:32N 40°37' W 074°03'232.1
2018-May-11 20:28N 40°39' W 074°02'3 5.0
2018-May-11 19:46N 40°42' W 074°00'3 1.3
2018-May-11 17:48N 40°40' W 074°03'3 3.1
2018-May-11 16:59N 40°42' W 074°01'3 2.3
2018-May-11 15:34N 40°39' W 074°02'233.4
2018-May-11 15:31N 40°40' W 074°01'2 2.4
2018-May-11 14:44N 40°42' W 074°00'7 4.2
2018-May-11 13:08N 40°36' W 074°03'433.3
2018-May-11 13:00N 40°40' W 074°03'3 3.9
2018-May-11 12:14N 40°42' W 074°00'313.7
2018-May-11 12:01N 40°40' W 074°03'1 0.1
2018-May-11 02:11N 40°39' W 074°02'3 3.2
2018-May-11 01:14N 40°42' W 074°00'6 2.2
2018-May-10 22:31N 40°36' W 074°03'330.6
2018-May-10 22:25N 40°39' W 074°02'610.0
2018-May-10 21:49N 40°44' W 073°58'5 3.5
2018-May-10 20:23N 40°40' W 074°01'2 6.3
2018-May-10 20:01N 40°42' W 074°00'0 0.8
2018-May-10 19:29N 40°42' W 074°00'15 2.5
2018-May-10 13:28N 40°27' W 074°02'1532.0
2018-May-10 13:01N 40°42' W 074°01'4 6.9
2018-May-10 12:28N 40°45' W 073°58'612.5
2018-May-10 12:01N 40°39' W 074°01'1427.2
2018-May-10 11:29N 40°25' W 074°02'14 1.1
2018-May-09 22:27N 40°39' W 074°02'612.3
2018-May-09 21:56N 40°45' W 073°58'9 6.5
2018-May-09 20:31N 40°36' W 074°03'031.0
2018-May-09 20:30N 40°36' W 074°03'612.3
2018-May-09 20:01N 40°42' W 074°00'2 3.9
2018-May-09 19:30N 40°43' W 073°58'17 2.8
2018-May-09 13:25N 40°27' W 074°02'1330.9
2018-May-09 13:00N 40°39' W 074°03'510.4
2018-May-09 12:30N 40°43' W 073°58'815.5
2018-May-09 12:00N 40°36' W 074°02'1120.8
2018-May-09 11:30N 40°25' W 074°02'  

Dump ship's entire track history